Time;durP1;ratioP1;P1;durP2;ratioP2;P2;SDS_P1;SDS_P2;PMS_P1;PMS_P2;Temp;Humidity;BMP_temperature;BMP_pressure;BME280_temperature;BME280_humidity;BME280_pressure;Samples;Min_cycle;Max_cycle;Signal;HPM_P1;HPM_P2
2023/09/18 00:03:35;;;;;;;;;;;19.70;99.90;;;;;;20995463;28;19960;-75
2023/09/18 00:13:35;;;;;;;;;;;19.00;99.90;;;;;;21014665;28;19963;-74
2023/09/18 00:23:36;;;;;;;;;;;19.00;99.90;;;;;;21028883;28;20264;-75
2023/09/18 00:33:38;;;;;;;;;;;19.00;99.90;;;;;;21021489;28;19913;-76
2023/09/18 00:43:39;;;;;;;;;;;18.70;99.90;;;;;;21022899;28;19917;-75
2023/09/18 00:53:43;;;;;;;;;;;18.80;99.90;;;;;;21013782;28;19924;-75
2023/09/18 01:03:44;;;;;;;;;;;18.90;99.90;;;;;;21006644;28;19924;-75
2023/09/18 01:13:59;;;;;;;;;;;19.10;99.90;;;;;;21014951;28;19917;-74
2023/09/18 01:23:59;;;;;;;;;;;19.00;99.90;;;;;;21026244;28;19916;-75
2023/09/18 01:34:00;;;;;;;;;;;18.50;99.90;;;;;;20998087;28;19912;-74
2023/09/18 01:44:01;;;;;;;;;;;18.20;99.90;;;;;;21014898;28;19981;-75
2023/09/18 01:54:03;;;;;;;;;;;18.60;99.90;;;;;;21024306;28;19999;-75
2023/09/18 02:04:04;;;;;;;;;;;19.00;99.90;;;;;;21006095;28;20023;-75
2023/09/18 02:14:05;;;;;;;;;;;18.90;99.90;;;;;;20998293;28;19912;-75
2023/09/18 02:24:06;;;;;;;;;;;18.70;99.90;;;;;;21020670;28;19920;-75
2023/09/18 02:34:08;;;;;;;;;;;18.70;99.90;;;;;;21024806;28;19924;-74
2023/09/18 02:44:09;;;;;;;;;;;19.20;99.90;;;;;;21033627;28;19916;-74
2023/09/18 02:54:10;;;;;;;;;;;19.70;99.90;;;;;;21009981;28;19912;-74
2023/09/18 03:04:10;;;;;;;;;;;19.30;99.90;;;;;;21015238;28;19916;-74
2023/09/18 03:14:11;;;;;;;;;;;18.80;99.90;;;;;;21001909;28;19928;-74
2023/09/18 03:24:12;;;;;;;;;;;18.90;99.90;;;;;;21018056;28;19916;-74
2023/09/18 03:34:13;;;;;;;;;;;18.70;99.90;;;;;;21010298;28;19913;-74
2023/09/18 03:44:14;;;;;;;;;;;18.60;99.90;;;;;;20979828;28;19959;-73
2023/09/18 03:54:15;;;;;;;;;;;18.50;99.90;;;;;;20985842;28;19952;-74
2023/09/18 04:04:16;;;;;;;;;;;18.30;99.90;;;;;;20990473;28;19963;-74
2023/09/18 04:14:16;;;;;;;;;;;18.20;99.90;;;;;;20999052;28;19978;-74
2023/09/18 04:24:17;;;;;;;;;;;18.10;99.90;;;;;;21017202;28;20356;-74
2023/09/18 04:34:18;;;;;;;;;;;18.10;99.90;;;;;;21006862;28;19951;-74
2023/09/18 04:44:19;;;;;;;;;;;18.10;99.90;;;;;;20997153;28;20048;-75
2023/09/18 04:54:21;;;;;;;;;;;18.30;99.90;;;;;;20988939;28;19916;-74
2023/09/18 05:04:22;;;;;;;;;;;18.30;99.90;;;;;;21000790;28;19970;-76
2023/09/18 05:14:22;;;;;;;;;;;18.20;99.90;;;;;;21018267;28;19912;-75
2023/09/18 05:24:27;;;;;;;;;;;18.10;99.90;;;;;;21029649;28;19961;-73
2023/09/18 05:34:27;;;;;;;;;;;18.10;99.90;;;;;;21015764;28;19913;-72
2023/09/18 05:44:28;;;;;;;;;;;18.10;99.90;;;;;;20986506;28;19917;-72
2023/09/18 05:54:28;;;;;;;;;;;18.10;99.90;;;;;;20966730;28;19912;-73
2023/09/18 06:04:30;;;;;;;;;;;18.10;99.90;;;;;;20950006;28;20005;-73
2023/09/18 06:14:31;;;;;;;;;;;17.90;99.90;;;;;;21003936;28;19935;-72
2023/09/18 06:24:32;;;;;;;;;;;17.70;99.90;;;;;;21000888;28;19922;-74
2023/09/18 06:34:33;;;;;;;;;;;17.50;99.90;;;;;;20979372;28;20266;-72
2023/09/18 06:44:33;;;;;;;;;;;17.40;99.90;;;;;;20936855;28;19967;-72
2023/09/18 06:54:34;;;;;;;;;;;17.50;99.90;;;;;;21003297;28;19920;-73
2023/09/18 07:04:35;;;;;;;;;;;17.20;99.90;;;;;;20973750;28;19970;-73
2023/09/18 07:14:37;;;;;;;;;;;17.10;99.90;;;;;;20985227;28;19916;-73
2023/09/18 07:24:40;;;;;;;;;;;17.20;99.90;;;;;;21031241;28;19923;-74
2023/09/18 07:34:41;;;;;;;;;;;17.30;99.90;;;;;;21009825;28;20435;-73
2023/09/18 07:44:42;;;;;;;;;;;17.40;99.90;;;;;;21036481;28;19952;-74
2023/09/18 07:54:43;;;;;;;;;;;17.70;99.90;;;;;;21022456;28;20294;-74
2023/09/18 08:04:43;;;;;;;;;;;17.70;99.90;;;;;;20991817;28;19963;-73
2023/09/18 08:14:44;;;;;;;;;;;17.60;99.90;;;;;;21011106;28;20143;-74
2023/09/18 08:24:45;;;;;;;;;;;17.70;99.90;;;;;;21044265;28;19996;-73
2023/09/18 08:34:46;;;;;;;;;;;17.70;99.90;;;;;;21012529;28;19917;-74
2023/09/18 08:44:48;;;;;;;;;;;17.70;99.90;;;;;;21024407;28;19922;-73
2023/09/18 08:54:50;;;;;;;;;;;17.80;99.90;;;;;;21025621;28;19913;-74
2023/09/18 09:04:51;;;;;;;;;;;17.80;99.90;;;;;;20999813;28;19964;-74
2023/09/18 09:15:02;;;;;;;;;;;17.90;99.90;;;;;;21027000;28;19923;-73
2023/09/18 09:25:02;;;;;;;;;;;18.20;99.90;;;;;;21004595;28;20002;-73
2023/09/18 09:35:07;;;;;;;;;;;18.40;99.90;;;;;;21025959;28;19947;-73
2023/09/18 09:45:11;;;;;;;;;;;18.40;99.90;;;;;;21028993;28;19923;-74
2023/09/18 09:55:18;;;;;;;;;;;18.70;99.90;;;;;;21008617;28;19916;-73
2023/09/18 10:05:19;;;;;;;;;;;18.40;99.90;;;;;;21020315;28;19977;-73
2023/09/18 10:15:21;;;;;;;;;;;18.50;99.90;;;;;;21046747;28;19912;-74
2023/09/18 10:25:24;;;;;;;;;;;18.60;99.90;;;;;;21049810;28;20297;-73
2023/09/18 10:35:25;;;;;;;;;;;18.90;99.90;;;;;;20998323;28;19912;-74
2023/09/18 10:45:26;;;;;;;;;;;18.50;99.90;;;;;;21000931;28;19923;-73
2023/09/18 10:55:27;;;;;;;;;;;17.90;99.90;;;;;;21040641;28;19916;-72
2023/09/18 11:05:34;;;;;;;;;;;18.20;99.90;;;;;;20969040;28;19923;-73
2023/09/18 11:15:35;;;;;;;;;;;18.40;99.90;;;;;;21040781;28;20455;-73
2023/09/18 11:25:48;;;;;;;;;;;18.50;99.90;;;;;;21024769;28;19955;-73
2023/09/18 11:35:51;;;;;;;;;;;18.60;99.90;;;;;;21003153;28;19916;-72
2023/09/18 11:45:53;;;;;;;;;;;18.70;99.90;;;;;;21023603;28;19999;-73
2023/09/18 11:55:55;;;;;;;;;;;19.10;99.90;;;;;;21021325;28;19928;-74
2023/09/18 12:05:58;;;;;;;;;;;19.30;99.90;;;;;;20972741;28;19980;-73
2023/09/18 12:16:00;;;;;;;;;;;19.40;99.90;;;;;;20964429;28;20259;-73
2023/09/18 12:26:01;;;;;;;;;;;19.70;99.90;;;;;;20981994;28;19916;-73
2023/09/18 12:36:04;;;;;;;;;;;19.80;99.90;;;;;;20968996;28;19913;-73
2023/09/18 12:46:06;;;;;;;;;;;19.90;99.90;;;;;;21001261;28;19938;-73
2023/09/18 12:56:06;;;;;;;;;;;20.30;99.90;;;;;;21034530;28;19939;-74
2023/09/18 13:06:08;;;;;;;;;;;21.00;99.90;;;;;;21028725;28;19920;-75
2023/09/18 13:16:09;;;;;;;;;;;20.90;99.90;;;;;;20997407;28;19912;-75
2023/09/18 13:26:10;;;;;;;;;;;21.30;99.90;;;;;;20988431;28;19928;-75
2023/09/18 13:36:12;;;;;;;;;;;20.90;99.90;;;;;;20976228;28;20212;-73
2023/09/18 13:46:13;;;;;;;;;;;20.60;99.90;;;;;;20970115;28;20003;-75
2023/09/18 13:56:13;;;;;;;;;;;20.90;99.90;;;;;;21019585;28;19920;-74
2023/09/18 14:06:14;;;;;;;;;;;20.80;99.90;;;;;;20983898;28;20409;-74
2023/09/18 14:16:15;;;;;;;;;;;20.70;99.90;;;;;;21009654;28;19916;-74
2023/09/18 14:26:15;;;;;;;;;;;20.50;99.90;;;;;;20996402;28;20375;-75
2023/09/18 14:36:16;;;;;;;;;;;20.50;99.90;;;;;;20975423;28;19923;-75
2023/09/18 14:46:17;;;;;;;;;;;20.50;99.90;;;;;;21008263;28;20430;-75
2023/09/18 14:56:17;;;;;;;;;;;20.40;99.90;;;;;;21029587;28;19956;-75
2023/09/18 15:06:18;;;;;;;;;;;20.20;99.90;;;;;;20996465;28;19948;-75
2023/09/18 15:16:19;;;;;;;;;;;20.10;99.90;;;;;;21009776;28;20313;-75
2023/09/18 15:26:20;;;;;;;;;;;20.20;99.90;;;;;;21001345;28;19959;-75
2023/09/18 15:36:23;;;;;;;;;;;20.20;99.90;;;;;;21017224;28;20270;-74
2023/09/18 15:46:23;;;;;;;;;;;19.70;99.90;;;;;;21003378;28;19939;-74
2023/09/18 15:56:24;;;;;;;;;;;19.60;99.90;;;;;;21040719;28;19995;-75
2023/09/18 16:06:25;;;;;;;;;;;19.90;99.90;;;;;;21025437;28;20012;-76
2023/09/18 16:16:26;;;;;;;;;;;19.90;99.90;;;;;;20987213;28;19913;-75
2023/09/18 16:26:27;;;;;;;;;;;19.40;99.90;;;;;;20985887;28;19935;-75
2023/09/18 16:36:28;;;;;;;;;;;19.40;99.90;;;;;;20978421;28;20008;-73
2023/09/18 16:46:28;;;;;;;;;;;19.20;99.90;;;;;;20982855;28;19916;-75
2023/09/18 16:56:30;;;;;;;;;;;19.20;99.90;;;;;;20985720;28;19912;-75
2023/09/18 17:06:34;;;;;;;;;;;19.10;99.90;;;;;;21003013;28;19917;-75
2023/09/18 17:16:38;;;;;;;;;;;18.90;99.90;;;;;;20996516;28;20477;-74
2023/09/18 17:26:38;;;;;;;;;;;18.60;99.90;;;;;;20990753;28;19969;-75
2023/09/18 17:36:39;;;;;;;;;;;18.50;99.90;;;;;;20980201;28;19921;-74
2023/09/18 17:46:41;;;;;;;;;;;18.10;99.90;;;;;;20957423;28;19917;-75
2023/09/18 17:56:42;;;;;;;;;;;17.70;99.90;;;;;;20952490;28;19941;-75
2023/09/18 18:06:43;;;;;;;;;;;17.70;99.90;;;;;;20977163;28;19990;-75
2023/09/18 18:16:43;;;;;;;;;;;17.50;99.90;;;;;;20974344;28;19919;-73
2023/09/18 18:26:44;;;;;;;;;;;17.10;99.90;;;;;;20967289;28;20003;-75
2023/09/18 18:36:45;;;;;;;;;;;17.10;99.90;;;;;;20951692;28;19982;-75
2023/09/18 18:46:45;;;;;;;;;;;17.20;99.90;;;;;;20960396;28;20371;-75
2023/09/18 18:56:46;;;;;;;;;;;16.60;99.90;;;;;;20957816;28;20526;-75
2023/09/18 19:06:47;;;;;;;;;;;16.20;99.90;;;;;;20963998;28;19950;-76
2023/09/18 19:16:47;;;;;;;;;;;16.10;99.90;;;;;;20959568;28;19938;-75
2023/09/18 19:26:49;;;;;;;;;;;16.40;99.90;;;;;;20970257;28;19917;-76
2023/09/18 19:36:53;;;;;;;;;;;16.50;99.90;;;;;;20980322;28;19920;-77
2023/09/18 19:46:53;;;;;;;;;;;16.20;99.90;;;;;;20988184;28;19916;-73
2023/09/18 19:56:54;;;;;;;;;;;16.20;99.90;;;;;;20981305;28;19912;-76
2023/09/18 20:06:55;;;;;;;;;;;15.80;99.90;;;;;;20974863;28;20390;-76
2023/09/18 20:16:55;;;;;;;;;;;15.80;99.90;;;;;;20969479;28;19940;-75
2023/09/18 20:26:57;;;;;;;;;;;16.00;99.90;;;;;;21002557;28;20306;-74
2023/09/18 20:36:57;;;;;;;;;;;16.10;99.90;;;;;;21020759;28;19920;-76
2023/09/18 20:46:58;;;;;;;;;;;15.70;99.90;;;;;;21042678;28;19923;-76
2023/09/18 20:56:59;;;;;;;;;;;15.60;99.90;;;;;;20982500;28;19936;-76
2023/09/18 21:07:00;;;;;;;;;;;15.80;99.90;;;;;;20951707;28;19912;-76
2023/09/18 21:17:02;;;;;;;;;;;16.00;99.90;;;;;;20954297;28;20014;-76
2023/09/18 21:27:03;;;;;;;;;;;16.00;99.90;;;;;;20954888;28;19946;-76
2023/09/18 21:37:04;;;;;;;;;;;16.00;99.90;;;;;;20960433;28;20004;-77
2023/09/18 21:47:09;;;;;;;;;;;16.00;99.90;;;;;;20949661;28;19921;-76
2023/09/18 21:57:09;;;;;;;;;;;15.60;99.90;;;;;;20952325;28;19920;-77
2023/09/18 22:07:11;;;;;;;;;;;15.70;99.90;;;;;;20952187;28;19927;-77
2023/09/18 22:17:12;;;;;;;;;;;15.60;99.90;;;;;;20957013;28;19916;-77
2023/09/18 22:27:16;;;;;;;;;;;15.40;99.90;;;;;;20947834;28;19970;-77
2023/09/18 22:37:17;;;;;;;;;;;15.40;99.90;;;;;;20951272;28;19916;-77
2023/09/18 22:47:36;;;;;;;;;;;15.30;99.90;;;;;;20950565;28;19924;-77
2023/09/18 22:57:45;;;;;;;;;;;15.40;99.90;;;;;;20970074;28;20011;-77
2023/09/18 23:07:49;;;;;;;;;;;15.40;99.90;;;;;;20966845;28;19990;-75
2023/09/18 23:17:54;;;;;;;;;;;15.50;99.90;;;;;;20966537;28;19928;-77
2023/09/18 23:27:55;;;;;;;;;;;15.60;99.90;;;;;;21018406;28;19916;-76
2023/09/18 23:37:59;;;;;;;;;;;15.80;99.90;;;;;;21019191;28;19923;-77
2023/09/18 23:48:10;;;;;;;;;;;15.80;99.90;;;;;;21030920;28;20275;-77
2023/09/18 23:58:11;;;;;;;;;;;15.80;99.90;;;;;;21020415;28;19919;-77
